Time;durP1;ratioP1;P1;durP2;ratioP2;P2;SDS_P1;SDS_P2;PMS_P1;PMS_P2;Temp;Humidity;BMP_temperature;BMP_pressure;BME280_temperature;BME280_humidity;BME280_pressure;Samples;Min_cycle;Max_cycle;Signal;HPM_P1;HPM_P2
2023/08/29 00:00:08;;;;;;;20.30;18.30;;;;;;;25.55;74.77;99056.52;106059;1253;71863;-75
2023/08/29 00:02:41;;;;;;;20.80;18.70;;;;;;;25.49;74.75;99057.03;105459;1254;68541;-71
2023/08/29 00:05:09;;;;;;;21.70;19.60;;;;;;;25.44;75.03;99058.23;105445;1253;71360;-74
2023/08/29 00:07:38;;;;;;;20.30;17.20;;;;;;;25.44;74.99;99056.98;105477;1254;60488;-74
2023/08/29 00:10:06;;;;;;;18.60;16.80;;;;;;;25.44;75.10;99054.95;105829;1258;60303;-72
2023/08/29 00:12:34;;;;;;;19.60;17.70;;;;;;;25.39;75.17;99055.11;105453;1258;73105;-71
2023/08/29 00:15:03;;;;;;;20.30;18.30;;;;;;;25.33;75.24;99053.36;105536;1254;70017;-71
2023/08/29 00:17:31;;;;;;;20.60;18.60;;;;;;;25.27;75.62;99050.62;105903;1253;71270;-73
2023/08/29 00:19:59;;;;;;;20.80;18.70;;;;;;;25.21;75.68;99047.80;105625;1258;60447;-72
2023/08/29 00:22:27;;;;;;;20.60;17.90;;;;;;;25.21;75.92;99047.52;105574;1259;60089;-74
2023/08/29 00:24:56;;;;;;;19.80;17.90;;;;;;;25.22;76.15;99048.02;105452;1254;71811;-74
2023/08/29 00:27:24;;;;;;;19.90;18.00;;;;;;;25.18;76.39;99047.82;105386;1253;70304;-73
2023/08/29 00:29:51;;;;;;;21.60;19.40;;;;;;;25.12;76.63;99043.94;105196;1255;72695;-72
2023/08/29 00:32:18;;;;;;;25.50;18.10;;;;;;;25.07;76.92;99042.18;105759;1254;61651;-75
2023/08/29 00:34:46;;;;;;;18.90;16.90;;;;;;;25.06;77.05;99038.48;106165;1253;60028;-74
2023/08/29 00:37:13;;;;;;;20.40;18.20;;;;;;;25.06;76.95;99037.73;106423;1258;73098;-75
2023/08/29 00:39:41;;;;;;;20.60;18.70;;;;;;;25.04;77.19;99038.44;105442;1253;70025;-74
2023/08/29 00:42:08;;;;;;;20.70;18.80;;;;;;;24.97;77.58;99034.84;105481;1254;72534;-74
2023/08/29 00:44:36;;;;;;;19.80;17.90;;;;;;;24.92;77.80;99028.83;105403;1254;61819;-73
2023/08/29 00:47:06;;;;;;;18.70;17.10;;;;;;;24.93;78.24;99030.51;105606;1253;59610;-73
2023/08/29 00:49:36;;;;;;;24.30;20.00;;;;;;;24.94;78.23;99032.84;105617;1253;72350;-72
2023/08/29 00:52:05;;;;;;;22.00;19.60;;;;;;;24.88;78.40;99037.00;105644;1257;69167;-73
2023/08/29 00:54:33;;;;;;;22.20;19.90;;;;;;;24.80;78.74;99036.61;105614;1254;70452;-74
2023/08/29 00:57:00;;;;;;;20.10;18.00;;;;;;;24.76;79.09;99035.71;105331;1260;60449;-73
2023/08/29 00:59:29;;;;;;;20.40;18.20;;;;;;;24.78;78.76;99040.65;105533;1253;60237;-73
2023/08/29 01:01:57;;;;;;;20.60;18.50;;;;;;;24.82;78.94;99038.23;105324;1258;71964;-72
2023/08/29 01:04:24;;;;;;;21.30;19.20;;;;;;;24.80;79.42;99040.20;105327;1254;70658;-70
2023/08/29 01:06:54;;;;;;;20.30;18.40;;;;;;;24.76;79.53;99045.16;105438;1253;72674;-72
2023/08/29 01:09:22;;;;;;;21.10;19.10;;;;;;;24.72;79.34;99043.44;105385;1254;61702;-72
2023/08/29 01:12:16;;;;;;;20.60;18.80;;;;;;;24.74;79.10;99047.73;105652;1258;59602;-72
2023/08/29 01:14:43;;;;;;;;;;;;;;;24.77;79.44;99047.11;105484;1258;73064;-72
2023/08/29 01:17:12;;;;;;;21.30;19.20;;;;;;;24.74;79.40;99052.18;105552;1253;69433;-72
2023/08/29 01:19:40;;;;;;;23.90;21.30;;;;;;;24.67;79.69;99052.04;105500;1253;72485;-72
2023/08/29 01:22:34;;;;;;;22.70;19.00;;;;;;;24.63;79.56;99053.20;105628;1254;61708;-73
2023/08/29 01:25:30;;;;;;;21.60;19.30;;;;;;;24.65;79.53;99056.89;105395;1253;61246;-73
2023/08/29 01:27:58;;;;;;;22.50;20.20;;;;;;;24.64;79.75;99060.53;105552;1253;74943;-71
2023/08/29 01:30:28;;;;;;;23.20;21.00;;;;;;;24.59;80.04;99062.61;105122;1261;68852;-73
2023/08/29 01:32:55;;;;;;;21.80;19.70;;;;;;;24.57;80.04;99060.17;105477;1254;72633;-72
2023/08/29 01:35:23;;;;;;;22.60;20.30;;;;;;;24.60;79.86;99058.64;105249;1261;61753;-72
2023/08/29 01:37:51;;;;;;;22.30;20.20;;;;;;;24.64;79.61;99057.91;105478;1256;60604;-73
2023/08/29 01:40:18;;;;;;;23.40;21.20;;;;;;;24.64;79.60;99059.07;105478;1253;72992;-72
2023/08/29 01:42:45;;;;;;;22.80;20.50;;;;;;;24.62;79.64;99059.99;105460;1253;68864;-73
2023/08/29 01:45:13;;;;;;;22.50;20.20;;;;;;;24.62;79.46;99064.12;105547;1254;72729;-72
2023/08/29 01:47:42;;;;;;;20.80;18.80;;;;;;;24.67;79.30;99058.67;105509;1257;60550;-72
2023/08/29 01:50:10;;;;;;;23.70;21.20;;;;;;;24.71;79.09;99056.59;105629;1258;60470;-70
2023/08/29 01:52:37;;;;;;;22.00;19.90;;;;;;;24.70;79.41;99052.20;105251;1254;73943;-74
2023/08/29 01:55:06;;;;;;;22.40;20.40;;;;;;;24.67;79.49;99048.62;105321;1254;70826;-73
2023/08/29 01:57:34;;;;;;;21.80;19.80;;;;;;;24.64;79.81;99046.45;105420;1256;72502;-73
2023/08/29 02:00:04;;;;;;;21.70;18.10;;;;;;;24.68;79.58;99049.81;105432;1259;61677;-73
2023/08/29 02:02:40;;;;;;;21.60;19.70;;;;;;;24.70;79.98;99049.70;105726;1254;60439;-73
2023/08/29 02:05:08;;;;;;;22.90;20.60;;;;;;;24.67;79.94;99051.98;105325;1254;73251;-72
2023/08/29 02:07:35;;;;;;;22.40;20.40;;;;;;;24.63;79.75;99057.98;105562;1253;69125;-72
2023/08/29 02:10:03;;;;;;;23.80;19.50;;;;;;;24.58;80.18;99062.39;105356;1260;72683;-73
2023/08/29 02:12:31;;;;;;;24.80;20.30;;;;;;;24.58;80.28;99054.68;105850;1253;60546;-73
2023/08/29 02:14:58;;;;;;;22.80;20.60;;;;;;;24.58;80.10;99053.70;105534;1258;60300;-74
2023/08/29 02:17:27;;;;;;;22.70;20.50;;;;;;;24.54;80.03;99052.85;105598;1255;73750;-73
2023/08/29 02:19:54;;;;;;;23.50;21.30;;;;;;;24.48;80.22;99052.36;105508;1255;70124;-73
2023/08/29 02:22:22;;;;;;;25.30;22.80;;;;;;;24.43;80.43;99049.32;105450;1254;72043;-75
2023/08/29 02:24:49;;;;;;;22.00;19.80;;;;;;;24.38;80.37;99053.30;105470;1253;61786;-74
2023/08/29 02:27:17;;;;;;;22.40;20.10;;;;;;;24.40;80.36;99050.41;105494;1253;62245;-73
2023/08/29 02:29:44;;;;;;;22.80;20.70;;;;;;;24.41;80.48;99054.23;105636;1253;73911;-73
2023/08/29 02:32:11;;;;;;;23.50;21.30;;;;;;;24.37;80.57;99059.88;105536;1258;68838;-73
2023/08/29 02:34:39;;;;;;;23.40;21.10;;;;;;;24.31;80.99;99062.66;105484;1253;72617;-74
2023/08/29 02:37:06;;;;;;;23.20;20.90;;;;;;;24.27;81.01;99065.12;105506;1254;61688;-72
2023/08/29 02:39:34;;;;;;;23.40;20.90;;;;;;;24.29;81.08;99061.20;106950;1256;60368;-72
2023/08/29 02:42:03;;;;;;;22.10;19.80;;;;;;;24.33;81.28;99063.91;106169;1253;73969;-74
2023/08/29 02:44:31;;;;;;;23.00;20.80;;;;;;;24.32;81.17;99057.66;105596;1254;70457;-75
2023/08/29 02:46:59;;;;;;;23.60;21.40;;;;;;;24.28;81.31;99056.70;105445;1256;72676;-73
2023/08/29 02:49:26;;;;;;;24.60;22.20;;;;;;;24.25;81.34;99052.09;105497;1254;60678;-73
2023/08/29 02:51:54;;;;;;;22.50;20.30;;;;;;;24.22;81.43;99050.58;105433;1258;60426;-74
2023/08/29 02:54:22;;;;;;;22.30;20.00;;;;;;;24.24;81.34;99053.83;105356;1260;73865;-73
2023/08/29 02:56:51;;;;;;;22.10;19.90;;;;;;;24.25;81.34;99054.15;105504;1256;69036;-74
2023/08/29 02:59:18;;;;;;;23.40;21.30;;;;;;;24.22;81.91;99056.05;105392;1258;71421;-75
2023/08/29 03:01:45;;;;;;;23.50;21.40;;;;;;;24.14;82.05;99057.77;105484;1258;60397;-74
2023/08/29 03:04:13;;;;;;;22.40;20.20;;;;;;;24.09;82.18;99059.83;105485;1259;60533;-73
2023/08/29 03:06:40;;;;;;;25.00;21.30;;;;;;;24.11;82.32;99057.00;105446;1258;73808;-74
2023/08/29 03:09:08;;;;;;;23.70;21.40;;;;;;;24.12;82.55;99058.79;105282;1254;70498;-73
2023/08/29 03:11:35;;;;;;;23.40;21.30;;;;;;;24.08;83.07;99062.11;105475;1255;71342;-73
2023/08/29 03:14:03;;;;;;;25.00;22.20;;;;;;;24.01;83.02;99064.73;105501;1253;60502;-73
2023/08/29 03:16:31;;;;;;;23.00;20.90;;;;;;;23.98;83.18;99069.61;105653;1253;60385;-75
2023/08/29 03:18:59;;;;;;;22.70;20.50;;;;;;;24.03;83.38;99070.80;105514;1258;73213;-72
2023/08/29 03:21:27;;;;;;;24.40;21.90;;;;;;;24.08;83.42;99073.71;105643;1253;70446;-73
2023/08/29 03:23:54;;;;;;;23.80;21.40;;;;;;;24.08;83.55;99073.06;105464;1257;72476;-74
2023/08/29 03:26:22;;;;;;;25.70;23.20;;;;;;;24.06;83.43;99077.23;105473;1256;60537;-72
2023/08/29 03:28:49;;;;;;;23.40;21.20;;;;;;;24.03;83.69;99078.12;105941;1253;60414;-74
2023/08/29 03:31:17;;;;;;;22.50;20.30;;;;;;;24.07;83.83;99082.13;105828;1253;72636;-73
2023/08/29 03:33:44;;;;;;;23.10;20.70;;;;;;;24.10;83.74;99083.76;105430;1253;69936;-73
2023/08/29 03:36:12;;;;;;;25.00;22.60;;;;;;;24.04;84.27;99085.02;105826;1253;71948;-73
2023/08/29 03:38:40;;;;;;;24.90;22.50;;;;;;;23.98;84.35;99087.89;105812;1253;60550;-75
2023/08/29 03:41:08;;;;;;;23.10;20.80;;;;;;;23.95;84.53;99089.90;105885;1254;60438;-74
2023/08/29 03:43:36;;;;;;;23.50;20.10;;;;;;;23.98;84.65;99090.50;105385;1254;72569;-75
2023/08/29 03:46:05;;;;;;;25.20;22.90;;;;;;;24.00;84.64;99098.86;105789;1253;70239;-71
2023/08/29 03:48:35;;;;;;;26.10;23.30;;;;;;;23.99;84.57;99094.62;105736;1254;71637;-73
2023/08/29 03:51:07;;;;;;;26.10;23.60;;;;;;;23.98;84.73;99101.30;105507;1255;60548;-72
2023/08/29 03:53:35;;;;;;;24.40;22.00;;;;;;;24.01;84.92;99102.65;105679;1260;60356;-72
2023/08/29 03:56:05;;;;;;;24.80;22.20;;;;;;;24.16;85.44;99108.38;105360;1260;72588;-74
2023/08/29 03:58:32;;;;;;;23.40;21.10;;;;;;;24.33;85.78;99107.49;105789;1253;70452;-74
2023/08/29 04:01:03;;;;;;;27.10;24.20;;;;;;;24.42;84.98;99099.65;105408;1255;71871;-73
2023/08/29 04:03:31;;;;;;;24.90;22.60;;;;;;;24.44;85.17;99100.73;105326;1256;61649;-74
2023/08/29 04:06:00;;;;;;;25.20;22.70;;;;;;;24.50;84.70;99099.81;105764;1253;60550;-73
2023/08/29 04:08:27;;;;;;;24.70;22.30;;;;;;;24.60;84.52;99098.55;105478;1258;73837;-71
2023/08/29 04:10:56;;;;;;;24.80;22.50;;;;;;;24.64;84.78;99096.86;105955;1253;70730;-73
2023/08/29 04:13:24;;;;;;;28.60;25.80;;;;;;;24.69;84.98;99093.64;105634;1256;72741;-71
2023/08/29 04:15:51;;;;;;;25.50;22.80;;;;;;;24.82;85.79;99094.67;105563;1256;61863;-73
2023/08/29 04:18:20;;;;;;;27.80;23.20;;;;;;;25.00;84.88;99096.28;105444;1258;60448;-72
2023/08/29 04:20:48;;;;;;;28.60;25.60;;;;;;;25.13;84.20;99100.09;105478;1253;72183;-73
2023/08/29 04:23:15;;;;;;;28.30;25.20;;;;;;;25.18;83.54;99104.89;105300;1256;70320;-73
2023/08/29 04:25:42;;;;;;;28.80;25.80;;;;;;;25.21;82.87;99108.91;105655;1253;72982;-72
2023/08/29 04:28:10;;;;;;;28.80;25.40;;;;;;;25.28;82.53;99114.59;105577;1257;60556;-71
2023/08/29 04:30:37;;;;;;;29.80;26.60;;;;;;;25.50;82.18;99116.96;105406;1254;60565;-73
2023/08/29 04:33:06;;;;;;;30.00;26.90;;;;;;;25.70;81.64;99118.35;105696;1258;73053;-71
2023/08/29 04:35:34;;;;;;;30.20;26.00;;;;;;;25.76;80.70;99115.91;105377;1261;68362;-73
2023/08/29 04:38:02;;;;;;;29.60;26.40;;;;;;;25.74;80.79;99119.69;105479;1258;72727;-73
2023/08/29 04:40:29;;;;;;;28.60;25.20;;;;;;;25.70;80.37;99120.09;105642;1258;61098;-72
2023/08/29 04:42:58;;;;;;;27.90;24.20;;;;;;;25.70;80.38;99119.00;105628;1258;60441;-72
2023/08/29 04:45:26;;;;;;;27.80;24.30;;;;;;;25.70;80.49;99120.69;105697;1253;72645;-73
2023/08/29 04:47:54;;;;;;;26.90;24.50;;;;;;;25.67;80.57;99118.53;105393;1258;68184;-72
2023/08/29 04:50:22;;;;;;;27.40;24.70;;;;;;;25.61;81.12;99115.54;105447;1256;71336;-73
2023/08/29 04:52:53;;;;;;;26.70;24.10;;;;;;;25.58;81.77;99111.52;105679;1253;60393;-73
2023/08/29 04:55:21;;;;;;;27.90;24.90;;;;;;;25.63;81.31;99106.93;105614;1253;60595;-74
2023/08/29 04:57:51;;;;;;;26.50;23.70;;;;;;;25.70;81.13;99105.95;105459;1253;73836;-73
2023/08/29 05:00:18;;;;;;;29.00;23.60;;;;;;;25.75;80.57;99105.05;105362;1253;70021;-73
2023/08/29 05:02:46;;;;;;;27.60;24.80;;;;;;;25.77;80.24;99107.75;105739;1255;72094;-72
2023/08/29 05:05:13;;;;;;;26.60;23.80;;;;;;;25.79;79.96;99116.61;105373;1253;60449;-71
2023/08/29 05:07:41;;;;;;;29.60;23.30;;;;;;;25.81;79.94;99120.02;105572;1258;60364;-73
2023/08/29 05:10:09;;;;;;;26.30;23.20;;;;;;;25.89;79.65;99119.42;105551;1253;72830;-73
2023/08/29 05:12:36;;;;;;;24.80;22.50;;;;;;;25.97;79.30;99113.98;105268;1260;69292;-73
2023/08/29 05:15:04;;;;;;;24.20;22.10;;;;;;;25.99;79.11;99113.74;105404;1254;72706;-74
2023/08/29 05:17:31;;;;;;;25.40;22.90;;;;;;;26.00;79.02;99110.80;105837;1253;60585;-73
2023/08/29 05:19:59;;;;;;;23.60;21.20;;;;;;;26.03;78.92;99111.48;105329;1258;60981;-74
2023/08/29 05:22:26;;;;;;;29.10;21.70;;;;;;;26.13;78.73;99111.29;105389;1253;76122;-74
2023/08/29 05:24:54;;;;;;;24.40;22.10;;;;;;;26.21;79.00;99113.17;105919;1258;69158;-73
2023/08/29 05:27:21;;;;;;;25.50;23.00;;;;;;;26.23;79.22;99119.19;105582;1256;72794;-75
2023/08/29 05:29:49;;;;;;;27.00;24.50;;;;;;;26.28;78.92;99118.01;105459;1256;60490;-73
2023/08/29 05:32:16;;;;;;;25.60;21.30;;;;;;;26.31;78.61;99116.40;105536;1253;60432;-73
2023/08/29 05:34:43;;;;;;;21.50;19.50;;;;;;;26.41;78.60;99116.63;105482;1258;73890;-75
2023/08/29 05:37:11;;;;;;;21.40;19.10;;;;;;;26.52;77.62;99115.70;105446;1255;69956;-74
2023/08/29 05:39:39;;;;;;;23.90;21.30;;;;;;;26.57;77.07;99111.27;105483;1253;71386;-77
2023/08/29 05:42:06;;;;;;;23.50;21.10;;;;;;;26.60;76.92;99112.53;105354;1253;60564;-74
2023/08/29 05:44:34;;;;;;;25.40;20.90;;;;;;;26.64;76.47;99115.48;105342;1253;60762;-74
2023/08/29 05:47:01;;;;;;;24.20;20.00;;;;;;;26.71;76.13;99114.33;105389;1260;73805;-76
2023/08/29 05:49:29;;;;;;;22.20;20.10;;;;;;;26.77;76.09;99114.20;105322;1253;70318;-72
2023/08/29 05:51:56;;;;;;;23.50;21.30;;;;;;;26.82;76.31;99113.64;105655;1256;72843;-72
2023/08/29 05:54:23;;;;;;;24.50;22.00;;;;;;;26.87;76.80;99113.73;105408;1253;60470;-72
2023/08/29 05:56:51;;;;;;;25.30;22.00;;;;;;;26.91;77.16;99109.94;105378;1257;60432;-73
2023/08/29 05:59:18;;;;;;;23.00;20.60;;;;;;;26.95;76.64;99110.17;105247;1258;73891;-76
2023/08/29 06:01:45;;;;;;;22.10;20.00;;;;;;;27.05;75.82;99110.67;105304;1253;70675;-74
2023/08/29 06:04:13;;;;;;;22.00;19.80;;;;;;;27.19;75.56;99115.41;105395;1256;74813;-75
2023/08/29 06:06:40;;;;;;;23.80;20.50;;;;;;;27.25;75.18;99114.81;105569;1257;60442;-74
2023/08/29 06:09:11;;;;;;;23.80;20.90;;;;;;;27.26;74.62;99119.88;105507;1253;60537;-72
2023/08/29 06:11:39;;;;;;;27.30;22.40;;;;;;;27.29;75.33;99120.11;105470;1260;73858;-73
2023/08/29 06:14:07;;;;;;;23.70;21.30;;;;;;;27.32;75.33;99122.69;105593;1253;70290;-76
2023/08/29 06:16:34;;;;;;;22.20;20.10;;;;;;;27.35;75.78;99126.84;105298;1253;71409;-72
2023/08/29 06:19:02;;;;;;;22.40;20.40;;;;;;;27.37;75.88;99126.70;105387;1259;60508;-74
2023/08/29 06:21:29;;;;;;;23.20;20.70;;;;;;;27.39;75.64;99126.02;105449;1253;60527;-74
2023/08/29 06:23:57;;;;;;;23.00;20.70;;;;;;;27.43;77.75;99127.48;105405;1256;72628;-73
2023/08/29 06:26:24;;;;;;;22.40;20.10;;;;;;;27.49;77.64;99126.52;105534;1257;69197;-73
2023/08/29 06:28:52;;;;;;;22.20;20.00;;;;;;;27.56;75.97;99130.85;105359;1253;72721;-75
2023/08/29 06:31:19;;;;;;;25.00;20.50;;;;;;;27.70;75.21;99130.31;106087;1256;61759;-72
2023/08/29 06:33:47;;;;;;;22.60;20.40;;;;;;;27.77;74.99;99128.52;105661;1258;60500;-74
2023/08/29 06:36:14;;;;;;;23.50;21.10;;;;;;;27.79;74.66;99127.77;105447;1253;72569;-74
2023/08/29 06:38:42;;;;;;;24.80;22.10;;;;;;;27.81;75.29;99125.56;105421;1257;70150;-74
2023/08/29 06:41:10;;;;;;;24.40;22.20;;;;;;;27.84;74.96;99123.71;105392;1258;72949;-74
2023/08/29 06:43:37;;;;;;;27.10;20.90;;;;;;;27.86;74.74;99125.97;105474;1254;61702;-73
2023/08/29 06:46:04;;;;;;;24.80;22.30;;;;;;;27.93;75.00;99123.44;105398;1253;60472;-74
2023/08/29 06:48:32;;;;;;;23.30;21.10;;;;;;;28.00;74.34;99122.11;105544;1256;73814;-74
2023/08/29 06:50:59;;;;;;;23.70;21.30;;;;;;;28.02;73.92;99121.42;105455;1258;68859;-74
2023/08/29 06:53:27;;;;;;;24.10;21.80;;;;;;;28.06;73.76;99121.15;105405;1258;71711;-74
2023/08/29 06:55:55;;;;;;;24.90;22.30;;;;;;;28.10;73.69;99119.77;105494;1254;60478;-74
2023/08/29 06:58:22;;;;;;;28.50;23.20;;;;;;;28.13;72.72;99118.58;105339;1254;60438;-75
2023/08/29 07:00:49;;;;;;;25.20;22.80;;;;;;;28.16;72.56;99119.33;105388;1259;73967;-75
2023/08/29 07:03:17;;;;;;;24.80;22.50;;;;;;;28.20;71.91;99119.64;105653;1253;69042;-73
2023/08/29 07:05:45;;;;;;;24.90;22.60;;;;;;;28.36;70.86;99117.48;105708;1256;73721;-75
2023/08/29 07:08:12;;;;;;;23.90;21.30;;;;;;;28.55;70.28;99116.45;105703;1256;61091;-74
2023/08/29 07:10:40;;;;;;;25.70;23.10;;;;;;;28.76;69.53;99119.00;105840;1259;60441;-73
2023/08/29 07:13:07;;;;;;;30.70;26.10;;;;;;;28.95;69.70;99119.11;106108;1259;74031;-72
2023/08/29 07:15:35;;;;;;;26.00;23.60;;;;;;;29.00;69.19;99120.87;105758;1256;69031;-75
2023/08/29 07:18:05;;;;;;;26.00;23.40;;;;;;;29.05;68.89;99119.66;106077;1254;71654;-72
2023/08/29 07:20:33;;;;;;;24.20;22.00;;;;;;;29.09;68.64;99120.52;106047;1256;60623;-74
2023/08/29 07:23:01;;;;;;;26.40;24.00;;;;;;;29.17;68.11;99125.14;105672;1254;62343;-75
2023/08/29 07:25:38;;;;;;;25.70;23.20;;;;;;;29.27;67.26;99125.75;106240;1252;72851;-74
2023/08/29 07:28:11;;;;;;;25.20;22.90;;;;;;;29.38;67.00;99127.20;105775;1254;70351;-74
2023/08/29 07:30:44;;;;;;;26.10;23.50;;;;;;;29.49;67.00;99129.52;105875;1256;72506;-73
2023/08/29 07:33:13;;;;;;;25.00;22.70;;;;;;;29.59;66.97;99127.31;105721;1254;61044;-73
2023/08/29 07:35:41;;;;;;;24.70;22.50;;;;;;;29.67;66.43;99124.77;106080;1259;60349;-73
2023/08/29 07:38:09;;;;;;;25.30;22.90;;;;;;;29.75;66.06;99127.15;105786;1254;72910;-73
2023/08/29 07:40:37;;;;;;;25.70;23.50;;;;;;;29.77;65.55;99126.05;105712;1253;70336;-74
2023/08/29 07:43:06;;;;;;;27.10;24.70;;;;;;;29.81;65.06;99126.06;105653;1253;72683;-73
2023/08/29 07:45:34;;;;;;;26.10;23.50;;;;;;;29.86;65.46;99122.77;105890;1259;60475;-75
2023/08/29 07:48:02;;;;;;;25.10;22.80;;;;;;;29.87;65.15;99121.15;105618;1254;60634;-76
2023/08/29 07:50:30;;;;;;;25.30;23.10;;;;;;;29.91;65.15;99120.67;106116;1256;72671;-73
2023/08/29 07:52:59;;;;;;;25.40;22.90;;;;;;;30.00;64.71;99121.98;105629;1254;70233;-73
2023/08/29 07:55:26;;;;;;;26.30;23.70;;;;;;;30.11;64.39;99117.92;105689;1259;71092;-76
2023/08/29 07:57:54;;;;;;;25.40;22.80;;;;;;;30.23;64.13;99116.38;105715;1254;60542;-73
2023/08/29 08:00:21;;;;;;;25.40;22.90;;;;;;;30.36;64.04;99117.25;105971;1253;60657;-73
2023/08/29 08:02:48;;;;;;;24.50;22.20;;;;;;;30.50;63.76;99119.63;105784;1256;74382;-74
2023/08/29 08:05:16;;;;;;;25.60;22.80;;;;;;;30.62;63.11;99122.98;105726;1253;70418;-75
2023/08/29 08:07:44;;;;;;;23.90;21.30;;;;;;;30.74;62.68;99121.85;105746;1253;73810;-73
2023/08/29 08:10:15;;;;;;;23.60;21.50;;;;;;;30.85;62.44;99123.70;105878;1254;60549;-74
2023/08/29 08:12:43;;;;;;;24.50;22.10;;;;;;;30.98;62.31;99122.85;105730;1254;60588;-72
2023/08/29 08:15:10;;;;;;;23.30;21.00;;;;;;;31.10;61.52;99124.05;105468;1256;72848;-74
2023/08/29 08:17:38;;;;;;;22.90;20.70;;;;;;;31.24;60.05;99122.13;105552;1254;69939;-74
2023/08/29 08:20:08;;;;;;;24.20;21.90;;;;;;;31.41;59.65;99122.41;105693;1256;71371;-75
2023/08/29 08:22:37;;;;;;;21.80;19.70;;;;;;;31.55;58.97;99123.09;105545;1257;60417;-74
2023/08/29 08:25:05;;;;;;;19.90;17.90;;;;;;;31.68;57.13;99122.02;105531;1254;60463;-73
2023/08/29 08:27:34;;;;;;;18.60;16.30;;;;;;;31.78;55.19;99118.77;105424;1257;72802;-74
2023/08/29 08:30:03;;;;;;;19.60;17.50;;;;;;;31.85;54.03;99117.29;105495;1253;70321;-73
2023/08/29 08:32:31;;;;;;;21.20;19.00;;;;;;;31.91;55.11;99109.88;105436;1254;72758;-74
2023/08/29 08:34:59;;;;;;;22.90;18.20;;;;;;;32.01;55.08;99109.27;105524;1256;61533;-72
2023/08/29 08:37:27;;;;;;;19.50;17.80;;;;;;;32.12;54.56;99107.34;105459;1253;60436;-72
2023/08/29 08:39:54;;;;;;;19.20;17.30;;;;;;;32.26;53.55;99106.20;105351;1253;73859;-76
2023/08/29 08:42:21;;;;;;;18.70;16.80;;;;;;;32.39;53.08;99101.40;105876;1256;70487;-72
2023/08/29 08:44:49;;;;;;;17.60;16.10;;;;;;;32.48;52.82;99103.83;105662;1253;71384;-73
2023/08/29 08:47:16;;;;;;;18.70;16.80;;;;;;;32.61;51.80;99100.36;105507;1254;61220;-73
2023/08/29 08:49:44;;;;;;;17.80;16.00;;;;;;;32.76;51.42;99098.37;105286;1253;60467;-73
2023/08/29 08:52:11;;;;;;;19.70;17.70;;;;;;;32.89;51.57;99101.16;105366;1258;73846;-74
2023/08/29 08:54:39;;;;;;;20.30;17.80;;;;;;;33.03;51.75;99097.84;105555;1253;68736;-75
2023/08/29 08:57:06;;;;;;;19.50;15.80;;;;;;;33.19;51.39;99095.66;105624;1256;72414;-73
2023/08/29 08:59:36;;;;;;;19.40;16.90;;;;;;;33.36;49.95;99090.25;106025;1256;60584;-74
2023/08/29 09:02:03;;;;;;;18.70;16.90;;;;;;;33.51;50.07;99095.36;108061;1253;60095;-74
2023/08/29 09:04:31;;;;;;;21.70;19.50;;;;;;;33.68;49.61;99097.13;105585;1259;73922;-75
2023/08/29 09:06:58;;;;;;;18.50;16.70;;;;;;;33.86;49.68;99094.38;105419;1254;69943;-75
2023/08/29 09:09:25;;;;;;;18.30;16.50;;;;;;;34.09;49.05;99093.59;105945;1254;63682;-76
2023/08/29 09:11:54;;;;;;;20.80;16.70;;;;;;;34.41;48.50;99095.02;106015;1257;60546;-73
2023/08/29 09:14:22;;;;;;;19.20;16.90;;;;;;;34.81;48.08;99092.60;105405;1253;60603;-75
2023/08/29 09:16:54;;;;;;;17.60;15.90;;;;;;;35.24;47.82;99088.97;105701;1256;66010;-74
2023/08/29 09:19:22;;;;;;;19.20;16.00;;;;;;;35.69;47.46;99091.62;105551;1258;60442;-74
2023/08/29 09:21:50;;;;;;;17.40;15.80;;;;;;;36.12;46.18;99098.08;105401;1258;62471;-73
2023/08/29 09:24:34;;;;;;;19.30;16.90;;;;;;;36.51;45.34;99095.67;105619;1257;60562;-76
2023/08/29 09:27:07;;;;;;;18.70;16.80;;;;;;;36.94;45.46;99095.29;105573;1253;60551;-74
2023/08/29 09:29:35;;;;;;;17.80;16.00;;;;;;;37.37;44.65;99089.67;105363;1255;63891;-72
2023/08/29 09:32:15;;;;;;;17.60;16.10;;;;;;;37.72;43.73;99086.44;105940;1254;60465;-76
2023/08/29 09:34:43;;;;;;;19.00;16.80;;;;;;;38.07;43.41;99086.39;105680;1254;227849;-73
2023/08/29 09:40:09;;;;;;;16.40;14.70;;;;;;;38.89;41.33;99090.45;102488;1296;600248;-73
2023/08/29 09:43:00;;;;;;;15.70;14.20;;;;;;;39.21;40.32;99097.48;104596;1282;59264;-74
2023/08/29 09:45:28;;;;;;;15.50;14.20;;;;;;;39.55;40.03;99089.30;104521;1272;59331;-74
2023/08/29 09:48:04;;;;;;;15.50;13.90;;;;;;;39.89;40.17;99090.63;104846;1267;63341;-74
2023/08/29 09:50:32;;;;;;;15.80;14.20;;;;;;;40.23;38.56;99086.67;105680;1266;61555;-72
2023/08/29 09:53:00;;;;;;;15.00;13.50;;;;;;;40.48;37.00;99088.89;105555;1258;164138;-74
2023/08/29 09:55:35;;;;;;;14.50;13.20;;;;;;;40.62;36.57;99087.55;105784;1263;59800;-76
2023/08/29 09:58:04;;;;;;;13.80;12.40;;;;;;;40.76;36.61;99087.45;105027;1266;59237;-73
2023/08/29 10:00:36;;;;;;;16.70;13.40;;;;;;;40.93;36.06;99081.04;105237;1264;63319;-75
2023/08/29 10:03:05;;;;;;;;;;;;;;;41.11;35.18;99080.33;105441;1264;60215;-75
2023/08/29 10:05:34;;;;;;;14.70;13.40;;;;;;;41.21;34.87;99080.95;105099;1261;63798;-75
2023/08/29 10:08:10;;;;;;;13.50;12.40;;;;;;;41.35;35.23;99075.05;105420;1257;59594;-74
2023/08/29 10:10:42;;;;;;;14.30;12.90;;;;;;;41.58;35.20;99071.71;105052;1263;59651;-74
2023/08/29 10:13:11;;;;;;;14.20;12.60;;;;;;;41.91;34.81;99075.94;105180;1262;64184;-74
2023/08/29 10:15:40;;;;;;;13.00;11.70;;;;;;;42.22;33.95;99078.70;104990;1258;61401;-75
2023/08/29 10:18:07;;;;;;;14.50;13.00;;;;;;;42.43;33.66;99075.28;105639;1262;62454;-74
2023/08/29 10:20:37;;;;;;;14.10;12.70;;;;;;;42.62;33.74;99081.26;105102;1258;59765;-74
2023/08/29 10:23:05;;;;;;;13.80;12.40;;;;;;;42.78;32.48;99085.55;104940;1257;59667;-75
2023/08/29 10:25:33;;;;;;;14.10;12.30;;;;;;;42.81;32.26;99078.04;105568;1258;64120;-75
2023/08/29 10:28:00;;;;;;;14.40;13.00;;;;;;;42.89;33.07;99072.22;105438;1262;61371;-73
2023/08/29 10:30:28;;;;;;;14.40;13.10;;;;;;;43.04;32.67;99072.26;105115;1261;63983;-75
2023/08/29 10:32:56;;;;;;;14.50;12.70;;;;;;;43.12;32.65;99074.53;105487;1257;59679;-75
2023/08/29 10:35:23;;;;;;;13.70;11.70;;;;;;;43.18;33.13;99075.88;105589;1264;59634;-76
2023/08/29 10:37:52;;;;;;;14.50;13.30;;;;;;;43.22;31.74;99074.67;105597;1257;63075;-75
2023/08/29 10:40:20;;;;;;;14.20;12.90;;;;;;;43.22;32.23;99078.02;105651;1260;60417;-75
2023/08/29 10:42:57;;;;;;;14.00;12.70;;;;;;;43.36;32.55;99073.99;105689;1257;64436;-75
2023/08/29 10:45:46;;;;;;;13.80;12.30;;;;;;;43.58;32.26;99073.56;105634;1257;59319;-75
2023/08/29 10:48:18;;;;;;;13.90;12.70;;;;;;;43.86;31.88;99068.38;105567;1258;60510;-76
2023/08/29 10:51:10;;;;;;;13.30;12.00;;;;;;;44.09;31.67;99068.63;105482;1262;64197;-76
2023/08/29 10:53:45;;;;;;;13.40;12.30;;;;;;;44.33;30.93;99065.72;105409;1263;60290;-76
2023/08/29 10:56:14;;;;;;;13.70;12.20;;;;;;;44.51;30.54;99065.17;105460;1263;63824;-75
2023/08/29 10:58:42;;;;;;;18.50;11.50;;;;;;;44.64;30.16;99059.77;105761;1262;59710;-75
2023/08/29 11:01:27;;;;;;;12.80;11.80;;;;;;;44.80;29.80;99067.84;105475;1258;60094;-75
2023/08/29 11:04:00;;;;;;;13.70;12.30;;;;;;;44.83;29.16;99069.81;105476;1263;64210;-75
2023/08/29 11:06:54;;;;;;;13.90;12.60;;;;;;;44.71;29.47;99066.73;105532;1262;62518;-75
2023/08/29 11:09:22;;;;;;;12.70;11.20;;;;;;;44.83;29.73;99065.34;105011;1264;62734;-75
2023/08/29 11:12:08;;;;;;;13.90;12.40;;;;;;;45.11;29.45;99067.84;105181;1259;59646;-76
2023/08/29 11:14:51;;;;;;;12.70;11.50;;;;;;;45.37;29.02;99068.58;105426;1257;59586;-75
2023/08/29 11:17:25;;;;;;;12.30;11.20;;;;;;;45.56;28.60;99070.64;105529;1263;64338;-76
2023/08/29 11:19:58;;;;;;;13.30;12.20;;;;;;;45.58;28.79;99069.98;105218;1258;61371;-75